createdAt,value
2023-03-29T00:03:18.701Z,80.53
2023-03-29T00:08:22.749Z,80.55
2023-03-29T00:13:25.377Z,81.36
2023-03-29T00:18:27.928Z,81.03
2023-03-29T00:23:32.283Z,81.19
2023-03-29T00:28:34.995Z,81.29
2023-03-29T00:33:37.581Z,82.07
2023-03-29T00:38:41.576Z,81.70
2023-03-29T00:43:55.375Z,82.33
2023-03-29T00:49:02.320Z,81.78
2023-03-29T00:54:09.243Z,82.08
2023-03-29T00:59:16.141Z,82.05
2023-03-29T01:04:24.639Z,82.26
2023-03-29T01:09:32.308Z,82.29
2023-03-29T01:14:39.345Z,82.35
2023-03-29T01:19:47.000Z,82.42
2023-03-29T01:25:00.979Z,82.89
2023-03-29T01:30:12.609Z,82.99
2023-03-29T01:35:21.021Z,83.01
2023-03-29T01:40:24.035Z,82.99
2023-03-29T01:45:35.613Z,83.32
2023-03-29T01:50:43.104Z,83.26
2023-03-29T01:55:51.222Z,83.02
2023-03-29T02:00:56.107Z,82.67
2023-03-29T02:06:00.262Z,83.23
2023-03-29T02:11:03.006Z,83.55
2023-03-29T02:16:12.465Z,83.73
2023-03-29T02:21:21.806Z,83.88
2023-03-29T02:26:24.621Z,83.18
2023-03-29T02:31:33.184Z,83.52
2023-03-29T02:36:41.635Z,83.49
2023-03-29T02:41:47.346Z,83.61
2023-03-29T02:46:57.328Z,83.39
2023-03-29T02:52:07.322Z,83.65
2023-03-29T02:57:11.191Z,83.61
2023-03-29T03:02:17.433Z,84.06
2023-03-29T03:07:20.264Z,84.13
2023-03-29T03:12:22.832Z,83.86
2023-03-29T03:17:26.752Z,84.19
2023-03-29T03:22:29.252Z,84.19
2023-03-29T03:27:33.904Z,83.72
2023-03-29T03:32:37.869Z,84.23
2023-03-29T03:37:40.972Z,84.28
2023-03-29T03:42:43.941Z,84.42
2023-03-29T03:47:47.978Z,84.80
2023-03-29T03:52:50.628Z,84.42
2023-03-29T03:57:53.259Z,84.03
2023-03-29T04:02:57.270Z,84.32
2023-03-29T04:08:00.109Z,84.35
2023-03-29T04:13:03.045Z,83.78
2023-03-29T04:18:07.406Z,84.73
2023-03-29T04:23:10.208Z,84.63
2023-03-29T04:28:13.590Z,84.04
2023-03-29T04:33:17.501Z,84.33
2023-03-29T04:38:23.116Z,84.75
2023-03-29T04:43:25.737Z,84.48
2023-03-29T04:48:31.534Z,83.68
2023-03-29T04:53:34.109Z,84.17
2023-03-29T04:58:36.719Z,84.12
2023-03-29T05:03:40.565Z,84.41
2023-03-29T05:08:43.303Z,84.70
2023-03-29T05:13:45.965Z,84.01
2023-03-29T05:18:49.940Z,84.64
2023-03-29T05:23:53.237Z,84.29
2023-03-29T05:28:55.834Z,84.18
2023-03-29T05:33:59.662Z,84.61
2023-03-29T05:39:02.162Z,84.57
2023-03-29T05:44:04.749Z,84.04
2023-03-29T05:49:08.605Z,84.39
2023-03-29T05:54:11.510Z,84.18
2023-03-29T05:59:14.842Z,84.77
2023-03-29T06:04:18.915Z,84.70
2023-03-29T06:09:21.519Z,84.29
2023-03-29T06:14:24.857Z,84.15
2023-03-29T06:19:29.197Z,84.04
2023-03-29T06:24:32.210Z,84.54
2023-03-29T06:29:35.105Z,83.82
2023-03-29T06:34:39.486Z,84.27
2023-03-29T06:39:42.018Z,84.46
2023-03-29T06:44:44.590Z,84.15
2023-03-29T06:49:48.403Z,83.61
2023-03-29T06:54:51.667Z,83.58
2023-03-29T06:59:54.214Z,83.40
2023-03-29T07:04:58.040Z,83.67
2023-03-29T07:10:01.729Z,83.30
2023-03-29T07:15:04.733Z,83.09
2023-03-29T07:20:13.833Z,83.43
2023-03-29T07:25:17.150Z,83.46
2023-03-29T07:30:22.747Z,82.91
2023-03-29T07:35:27.498Z,82.93
2023-03-29T07:40:31.150Z,83.15
2023-03-29T07:45:33.910Z,82.92
2023-03-29T07:50:37.864Z,82.92
2023-03-29T07:55:47.231Z,82.57
2023-03-29T08:00:50.639Z,82.32
2023-03-29T08:05:54.841Z,81.94
2023-03-29T08:10:57.423Z,81.93
2023-03-29T08:16:00.199Z,81.72
2023-03-29T08:21:04.760Z,81.68
2023-03-29T08:26:08.592Z,81.39
2023-03-29T08:31:12.741Z,81.24
2023-03-29T08:36:16.705Z,81.35
2023-03-29T08:41:32.866Z,81.13
2023-03-29T08:46:42.157Z,80.94
2023-03-29T08:51:49.056Z,80.59
2023-03-29T08:56:53.157Z,80.44
2023-03-29T09:01:59.213Z,80.45
2023-03-29T09:07:04.919Z,80.57
2023-03-29T09:12:20.789Z,80.23
2023-03-29T09:17:35.707Z,79.92
2023-03-29T09:22:47.016Z,79.41
2023-03-29T09:27:54.899Z,79.08
2023-03-29T09:33:01.769Z,78.77
2023-03-29T09:38:10.358Z,78.93
2023-03-29T09:43:17.620Z,78.29
2023-03-29T09:48:21.598Z,77.71
2023-03-29T09:53:26.412Z,76.82
2023-03-29T09:58:31.570Z,76.32
2023-03-29T10:03:34.924Z,76.21
2023-03-29T10:08:41.696Z,76.25
2023-03-29T10:13:47.224Z,75.71
2023-03-29T10:18:51.093Z,75.84
2023-03-29T10:23:59.610Z,75.89
2023-03-29T10:29:06.106Z,76.01
2023-03-29T10:34:09.558Z,75.92
2023-03-29T10:39:16.250Z,76.05
2023-03-29T10:44:31.572Z,76.08
2023-03-29T10:49:42.009Z,75.89
2023-03-29T10:54:47.261Z,75.68
2023-03-29T10:59:58.864Z,75.89
2023-03-29T11:05:15.695Z,76.15
2023-03-29T11:10:42.590Z,75.98
2023-03-29T11:15:59.128Z,75.86
2023-03-29T11:21:10.722Z,75.89
2023-03-29T11:26:22.730Z,76.09
2023-03-29T11:31:37.206Z,76.17
2023-03-29T11:36:53.698Z,76.74
2023-03-29T11:42:06.726Z,77.01
2023-03-29T11:47:14.400Z,76.93
2023-03-29T11:52:20.763Z,76.82
2023-03-29T11:57:29.957Z,77.09
2023-03-29T12:02:37.338Z,77.15
2023-03-29T12:07:46.749Z,77.25
2023-03-29T12:12:58.451Z,77.00
2023-03-29T12:18:08.246Z,76.79
2023-03-29T12:23:15.743Z,76.85
2023-03-29T12:28:36.692Z,76.73
2023-03-29T12:34:07.599Z,76.32
2023-03-29T12:39:15.292Z,75.94
2023-03-29T12:44:23.414Z,76.07
2023-03-29T12:49:30.417Z,75.87
2023-03-29T12:54:34.255Z,75.77
2023-03-29T12:59:45.180Z,75.45
2023-03-29T13:04:52.130Z,75.14
2023-03-29T13:09:56.545Z,74.90
2023-03-29T13:15:02.670Z,74.73
2023-03-29T13:20:21.160Z,75.02
2023-03-29T13:25:50.493Z,75.05
2023-03-29T13:31:00.418Z,75.28
2023-03-29T13:36:08.721Z,74.84
2023-03-29T13:41:28.698Z,74.60
2023-03-29T13:46:41.310Z,75.05
2023-03-29T13:52:01.530Z,75.33
2023-03-29T13:57:10.843Z,75.45
2023-03-29T14:02:22.840Z,75.55
2023-03-29T14:07:27.009Z,75.83
2023-03-29T14:12:35.391Z,76.08
2023-03-29T14:17:40.054Z,76.15
2023-03-29T14:22:43.894Z,76.28
2023-03-29T14:27:46.678Z,76.42
2023-03-29T14:32:52.332Z,76.54
2023-03-29T14:37:55.042Z,76.37
2023-03-29T14:42:57.604Z,76.60
2023-03-29T14:48:01.785Z,77.13
2023-03-29T14:53:06.110Z,77.31
2023-03-29T14:58:20.473Z,78.21
2023-03-29T15:03:26.420Z,78.77
2023-03-29T15:08:33.554Z,79.38
2023-03-29T15:13:36.385Z,79.63
2023-03-29T15:18:42.862Z,80.21
2023-03-29T15:23:51.604Z,80.54
2023-03-29T15:28:57.382Z,80.59
2023-03-29T15:34:08.503Z,81.17
2023-03-29T15:39:14.374Z,81.34
2023-03-29T15:44:18.684Z,81.44
2023-03-29T15:49:22.574Z,81.50
2023-03-29T15:54:25.304Z,81.51
2023-03-29T15:59:28.210Z,81.86
2023-03-29T16:04:32.115Z,82.28
2023-03-29T16:09:34.812Z,82.36
2023-03-29T16:14:37.578Z,82.79
2023-03-29T16:19:41.395Z,82.81
2023-03-29T16:24:43.932Z,83.08
2023-03-29T16:29:46.456Z,83.45
2023-03-29T16:34:50.294Z,83.33
2023-03-29T16:39:52.813Z,83.34
2023-03-29T16:44:56.508Z,83.39
2023-03-29T16:50:00.399Z,83.39
2023-03-29T16:55:04.037Z,83.47
2023-03-29T17:00:10.787Z,83.73
2023-03-29T17:05:14.730Z,83.68
2023-03-29T17:10:17.268Z,83.72
2023-03-29T17:15:19.882Z,83.61
2023-03-29T17:20:23.732Z,83.71
2023-03-29T17:25:26.309Z,83.78
2023-03-29T17:30:30.407Z,83.84
2023-03-29T17:35:34.816Z,83.86
2023-03-29T17:40:37.495Z,83.77
2023-03-29T17:45:40.117Z,83.69
2023-03-29T17:50:43.973Z,83.87
2023-03-29T17:55:46.748Z,83.76
2023-03-29T18:00:49.566Z,84.02
2023-03-29T18:05:54.181Z,84.14
2023-03-29T18:10:56.722Z,84.13
2023-03-29T18:15:59.734Z,84.04
2023-03-29T18:21:04.105Z,84.08
2023-03-29T18:26:08.234Z,83.82
2023-03-29T18:31:10.995Z,83.81
2023-03-29T18:36:15.422Z,83.89
2023-03-29T18:41:18.020Z,83.99
2023-03-29T18:46:20.534Z,83.96
2023-03-29T18:51:25.726Z,84.00
2023-03-29T18:56:28.632Z,83.86
2023-03-29T19:01:31.183Z,83.83
2023-03-29T19:06:35.825Z,83.87
2023-03-29T19:11:38.369Z,83.89
2023-03-29T19:16:42.293Z,83.80
2023-03-29T19:21:47.899Z,83.53
2023-03-29T19:26:51.905Z,83.71
2023-03-29T19:31:54.558Z,83.86
2023-03-29T19:37:00.200Z,83.97
2023-03-29T19:42:02.757Z,84.05
2023-03-29T19:47:05.663Z,84.10
2023-03-29T19:52:10.528Z,84.12
2023-03-29T19:57:13.050Z,84.04
2023-03-29T20:02:16.009Z,84.17
2023-03-29T20:07:19.961Z,84.55
2023-03-29T20:12:22.756Z,84.54
2023-03-29T20:17:25.581Z,84.78
2023-03-29T20:22:31.145Z,85.08
2023-03-29T20:27:34.073Z,85.14
2023-03-29T20:32:36.693Z,85.27
2023-03-29T20:37:40.692Z,85.62
2023-03-29T20:42:46.137Z,85.59
2023-03-29T20:47:57.403Z,85.65
2023-03-29T20:53:03.586Z,86.00
2023-03-29T20:58:07.768Z,85.61
2023-03-29T21:03:10.820Z,86.38
2023-03-29T21:08:18.224Z,86.63
2023-03-29T21:13:20.865Z,86.67
2023-03-29T21:18:23.535Z,87.28
2023-03-29T21:23:27.382Z,87.58
2023-03-29T21:28:29.917Z,87.56
2023-03-29T21:33:32.509Z,88.09
2023-03-29T21:38:36.570Z,88.13
2023-03-29T21:43:39.588Z,87.97
2023-03-29T21:48:42.593Z,88.53
2023-03-29T21:53:46.469Z,88.45
2023-03-29T21:58:48.947Z,88.98
2023-03-29T22:03:51.470Z,89.37
2023-03-29T22:08:55.277Z,88.98
2023-03-29T22:13:57.868Z,89.25
2023-03-29T22:19:00.393Z,89.36
2023-03-29T22:24:04.953Z,89.58
2023-03-29T22:29:07.490Z,89.96
2023-03-29T22:34:10.006Z,89.98
2023-03-29T22:39:13.864Z,90.16
2023-03-29T22:44:16.369Z,90.58
2023-03-29T22:49:18.913Z,90.98
2023-03-29T22:54:22.728Z,91.06
2023-03-29T22:59:26.854Z,91.25
2023-03-29T23:04:29.473Z,90.86
2023-03-29T23:09:33.499Z,91.09
2023-03-29T23:14:36.077Z,91.26
2023-03-29T23:19:38.791Z,91.15
2023-03-29T23:24:43.449Z,91.76
2023-03-29T23:29:46.056Z,91.32
2023-03-29T23:34:48.563Z,91.47
2023-03-29T23:39:52.380Z,91.62
2023-03-29T23:44:55.807Z,91.58
2023-03-29T23:50:01.942Z,91.85
2023-03-29T23:55:06.700Z,92.25
